Time;durP1;ratioP1;P1;durP2;ratioP2;P2;SDS_P1;SDS_P2;PMS_P1;PMS_P2;Temp;Humidity;BMP_temperature;BMP_pressure;BME280_temperature;BME280_humidity;BME280_pressure;Samples;Min_cycle;Max_cycle;Signal;HPM_P1;HPM_P2
2022/07/05 00:01:47;;;;;;;0.20;0.20;;;;;;;13.86;71.99;100248.00;5124975;28;20459;-72
2022/07/05 00:04:12;;;;;;;0.52;0.52;;;;;;;13.86;71.92;100253.22;5125215;28;20019;-72
2022/07/05 00:07:17;;;;;;;0.20;0.20;;;;;;;13.85;72.02;100268.91;5125274;28;20019;-73
2022/07/05 00:09:23;;;;;;;0.20;0.20;;;;;;;13.77;71.68;100266.47;5125122;28;20031;-71
2022/07/05 00:11:48;;;;;;;0.30;0.30;;;;;;;13.73;71.94;100270.94;5124995;28;20015;-72
2022/07/05 00:14:13;;;;;;;0.30;0.30;;;;;;;13.63;71.91;100249.41;5125276;28;20050;-72
2022/07/05 00:16:39;;;;;;;0.30;0.30;;;;;;;13.67;71.94;100265.00;5124404;28;20023;-72
2022/07/05 00:19:04;;;;;;;0.30;0.30;;;;;;;13.65;71.99;100267.63;5124209;28;20050;-72
2022/07/05 00:21:29;;;;;;;0.65;0.65;;;;;;;13.60;72.28;100259.06;5124888;28;20056;-71
2022/07/05 00:23:55;;;;;;;0.25;0.25;;;;;;;13.59;72.40;100268.66;5123908;28;20391;-71
2022/07/05 00:26:20;;;;;;;1.67;1.65;;;;;;;13.57;72.05;100265.22;5124166;28;20052;-72
2022/07/05 00:28:45;;;;;;;0.28;0.28;;;;;;;13.56;71.98;100263.47;5124890;28;20406;-72
2022/07/05 00:31:11;;;;;;;0.30;0.30;;;;;;;13.62;72.06;100272.94;5124455;28;20039;-72
2022/07/05 00:33:36;;;;;;;0.30;0.30;;;;;;;13.70;72.22;100264.91;5124506;28;20020;-71
2022/07/05 00:36:02;;;;;;;0.30;0.30;;;;;;;13.75;71.91;100276.09;5124510;28;20020;-72
2022/07/05 00:38:27;;;;;;;0.25;0.25;;;;;;;13.81;72.37;100270.75;5124466;28;20337;-71
2022/07/05 00:40:53;;;;;;;0.20;0.20;;;;;;;13.81;72.23;100270.75;5124343;28;20020;-71
2022/07/05 00:43:18;;;;;;;0.20;0.20;;;;;;;13.85;72.27;100272.38;5124560;28;20076;-72
2022/07/05 00:45:43;;;;;;;0.20;0.20;;;;;;;13.90;72.69;100277.47;5124241;28;20016;-72
2022/07/05 00:48:09;;;;;;;0.30;0.30;;;;;;;13.97;72.60;100273.84;5105986;28;20027;-71
2022/07/05 00:50:34;;;;;;;0.20;0.20;;;;;;;13.97;72.68;100268.63;5124420;28;20058;-73
2022/07/05 00:53:00;;;;;;;0.20;0.20;;;;;;;14.04;72.57;100276.28;5124263;28;20031;-73
2022/07/05 00:55:25;;;;;;;0.30;0.30;;;;;;;14.04;72.50;100269.28;5105932;28;20028;-72
2022/07/05 00:57:51;;;;;;;0.30;0.30;;;;;;;14.09;72.73;100261.38;5124293;28;20028;-73
2022/07/05 01:00:17;;;;;;;0.20;0.20;;;;;;;14.10;72.42;100268.31;5123555;28;20019;-72
2022/07/05 01:02:43;;;;;;;0.20;0.20;;;;;;;14.10;72.75;100274.38;5105650;28;20022;-74
2022/07/05 01:05:08;;;;;;;0.20;0.20;;;;;;;14.07;72.46;100274.47;5124158;28;20027;-73
2022/07/05 01:07:34;;;;;;;0.20;0.20;;;;;;;14.04;72.44;100281.50;5124005;28;20020;-73
2022/07/05 01:09:59;;;;;;;0.20;0.20;;;;;;;14.03;72.44;100272.81;5123909;28;20022;-73
2022/07/05 01:12:25;;;;;;;0.20;0.20;;;;;;;14.01;72.54;100274.59;5123883;28;20087;-72
2022/07/05 01:14:51;;;;;;;0.20;0.20;;;;;;;13.99;72.34;100282.47;5123836;28;20020;-73
2022/07/05 01:17:16;;;;;;;0.30;0.30;;;;;;;13.97;72.48;100272.97;5123467;28;20038;-72
2022/07/05 01:19:42;;;;;;;0.20;0.20;;;;;;;14.02;72.28;100280.69;5123847;28;20119;-72
2022/07/05 01:22:16;;;;;;;0.20;0.20;;;;;;;13.98;72.12;100267.72;5123785;28;20057;-72
2022/07/05 01:24:42;;;;;;;0.30;0.30;;;;;;;14.03;72.38;100274.56;5123818;28;20027;-72
2022/07/05 01:27:07;;;;;;;0.30;0.30;;;;;;;13.97;72.20;100273.84;5105304;28;20046;-72
2022/07/05 01:29:33;;;;;;;0.20;0.20;;;;;;;13.99;71.97;100277.25;5123533;28;20027;-74
2022/07/05 01:31:58;;;;;;;0.45;0.45;;;;;;;14.04;72.24;100287.56;5123406;28;20020;-74
2022/07/05 01:34:24;;;;;;;0.20;0.20;;;;;;;14.04;72.19;100286.72;5123953;28;20046;-72
2022/07/05 01:36:49;;;;;;;0.40;0.40;;;;;;;14.04;72.28;100290.19;5123850;28;20464;-72
2022/07/05 01:39:15;;;;;;;0.20;0.20;;;;;;;14.04;72.36;100290.19;5123902;28;20023;-72
2022/07/05 01:41:40;;;;;;;0.30;0.30;;;;;;;14.01;72.35;100290.25;5123523;28;20028;-72
2022/07/05 01:44:05;;;;;;;0.50;0.50;;;;;;;13.99;72.23;100290.28;5123938;28;20042;-72
2022/07/05 01:46:33;;;;;;;1.23;0.77;;;;;;;13.99;72.01;100297.28;5123440;28;20102;-72
2022/07/05 01:49:02;;;;;;;0.30;0.30;;;;;;;14.01;72.56;100300.69;5123656;28;20030;-72
2022/07/05 01:51:33;;;;;;;1.08;1.00;;;;;;;13.97;72.38;100294.72;5123723;28;20019;-73
2022/07/05 01:53:59;;;;;;;0.30;0.30;;;;;;;13.97;72.50;100283.41;5123732;28;20051;-71
2022/07/05 01:56:25;;;;;;;0.20;0.20;;;;;;;13.97;72.48;100291.22;5123490;28;20043;-72
2022/07/05 01:58:51;;;;;;;0.30;0.30;;;;;;;13.92;72.43;100287.88;5123631;28;20020;-72
2022/07/05 02:01:32;;;;;;;0.20;0.20;;;;;;;13.86;72.60;100292.38;5123194;28;20027;-71
2022/07/05 02:03:57;;;;;;;1.10;1.10;;;;;;;13.84;72.45;100291.53;5105420;28;20049;-72
2022/07/05 02:06:23;;;;;;;0.20;0.20;;;;;;;13.80;72.44;100297.72;5123648;28;20019;-72
2022/07/05 02:08:48;;;;;;;0.30;0.30;;;;;;;13.78;72.53;100294.28;5123558;28;20311;-72
2022/07/05 02:11:13;;;;;;;0.20;0.20;;;;;;;13.77;71.78;100289.13;5123337;28;20023;-72
2022/07/05 02:13:39;;;;;;;0.20;0.20;;;;;;;13.75;71.77;100294.38;5123578;28;20024;-72
2022/07/05 02:16:04;;;;;;;0.20;0.20;;;;;;;13.74;71.74;100284.81;5123359;28;20092;-72
2022/07/05 02:18:29;;;;;;;0.30;0.30;;;;;;;13.73;71.60;100286.59;5123359;28;20030;-72
2022/07/05 02:20:55;;;;;;;0.20;0.20;;;;;;;13.78;71.69;100281.25;5123446;28;20051;-72
2022/07/05 02:23:20;;;;;;;0.20;0.20;;;;;;;13.80;71.47;100283.81;5123441;28;20019;-72
2022/07/05 02:25:45;;;;;;;0.30;0.30;;;;;;;13.77;71.67;100276.91;5123257;28;20048;-73
2022/07/05 02:28:11;;;;;;;0.20;0.20;;;;;;;13.81;71.72;100282.91;5123263;28;20444;-72
2022/07/05 02:30:36;;;;;;;0.20;0.20;;;;;;;13.75;71.96;100270.88;5123056;28;20113;-72
2022/07/05 02:33:02;;;;;;;0.20;0.20;;;;;;;13.75;71.89;100268.28;5123208;28;20497;-72
2022/07/05 02:35:27;;;;;;;0.20;0.20;;;;;;;13.85;71.63;100285.41;5123376;28;20362;-72
2022/07/05 02:37:52;;;;;;;0.30;0.30;;;;;;;13.86;71.57;100287.16;5123208;28;20023;-72
2022/07/05 02:40:18;;;;;;;0.30;0.30;;;;;;;13.91;71.69;100291.38;5123877;28;20026;-72
2022/07/05 02:42:43;;;;;;;0.20;0.20;;;;;;;13.97;71.53;100291.22;5127043;28;20533;-72
2022/07/05 02:45:09;;;;;;;0.30;0.30;;;;;;;14.00;71.91;100285.94;5127008;28;20023;-72
2022/07/05 02:47:35;;;;;;;0.25;0.25;;;;;;;14.04;71.75;100284.13;5127093;28;20407;-72
2022/07/05 02:50:08;;;;;;;0.20;0.20;;;;;;;14.02;71.89;100299.81;5127437;28;20022;-73
2022/07/05 02:52:35;;;;;;;0.20;0.20;;;;;;;14.03;71.87;100288.47;5126824;28;20043;-72
2022/07/05 02:55:02;;;;;;;0.20;0.20;;;;;;;14.07;71.66;100292.75;5127277;28;20048;-72
2022/07/05 02:57:27;;;;;;;0.20;0.20;;;;;;;14.00;71.60;100283.31;5127417;28;20043;-74
2022/07/05 02:59:54;;;;;;;2.80;1.55;;;;;;;14.01;71.77;100295.47;5126938;28;20043;-73
2022/07/05 03:02:20;;;;;;;0.20;0.20;;;;;;;13.99;71.34;100294.69;5126474;28;20028;-73
2022/07/05 03:04:45;;;;;;;0.30;0.30;;;;;;;14.01;71.50;100285.03;5108417;28;20028;-73
2022/07/05 03:07:11;;;;;;;0.20;0.20;;;;;;;14.08;71.59;100290.97;5126981;28;20054;-73
2022/07/05 03:09:36;;;;;;;0.57;0.57;;;;;;;14.19;71.43;100294.16;5126855;28;20447;-74
2022/07/05 03:12:02;;;;;;;0.30;0.30;;;;;;;14.31;71.59;100290.41;5126761;28;20150;-73
2022/07/05 03:14:27;;;;;;;0.20;0.20;;;;;;;14.43;71.59;100289.22;5126532;28;20502;-73
2022/07/05 03:16:52;;;;;;;0.30;0.30;;;;;;;14.53;71.32;100296.78;5126664;28;20501;-73
2022/07/05 03:19:18;;;;;;;0.30;0.30;;;;;;;14.59;71.03;100289.66;5126387;28;20023;-73
2022/07/05 03:21:43;;;;;;;0.20;0.20;;;;;;;14.57;70.93;100294.06;5126335;28;20027;-72
2022/07/05 03:24:09;;;;;;;0.20;0.20;;;;;;;14.52;70.95;100290.69;5108056;28;20152;-73
2022/07/05 03:26:34;;;;;;;0.20;0.20;;;;;;;14.58;70.61;100294.91;5125837;28;20049;-74
2022/07/05 03:29:00;;;;;;;0.30;0.30;;;;;;;14.60;70.53;100290.53;5125203;28;20020;-73
2022/07/05 03:31:25;;;;;;;0.20;0.20;;;;;;;14.58;70.54;100289.69;5125370;28;20023;-74
2022/07/05 03:33:51;;;;;;;0.20;0.20;;;;;;;14.54;70.53;100294.13;5126126;28;20012;-74
2022/07/05 03:36:16;;;;;;;0.63;0.63;;;;;;;14.55;70.35;100290.66;5126090;28;20378;-74
2022/07/05 03:38:41;;;;;;;0.63;0.63;;;;;;;14.59;70.30;100291.41;5126176;28;20043;-74
2022/07/05 03:41:07;;;;;;;0.25;0.25;;;;;;;14.65;70.52;100295.63;5126095;28;20057;-73
2022/07/05 03:43:32;;;;;;;0.30;0.30;;;;;;;14.69;69.99;100289.41;5125754;28;20023;-74
2022/07/05 03:45:58;;;;;;;0.30;0.30;;;;;;;14.72;70.55;100294.53;5125789;28;20019;-74
2022/07/05 03:48:23;;;;;;;0.20;0.20;;;;;;;15.11;70.76;100298.72;5125831;28;20024;-73
2022/07/05 03:50:49;;;;;;;0.20;0.20;;;;;;;15.53;69.50;100292.22;5125847;28;20083;-72
2022/07/05 03:53:15;;;;;;;0.20;0.20;;;;;;;15.77;68.57;100304.59;5125547;28;20023;-73
2022/07/05 03:55:40;;;;;;;0.20;0.20;;;;;;;15.74;68.46;100295.06;5125831;28;20059;-72
2022/07/05 03:58:06;;;;;;;0.20;0.20;;;;;;;15.74;67.69;100295.06;5107500;28;20076;-73
2022/07/05 04:00:32;;;;;;;0.25;0.25;;;;;;;15.66;67.40;100295.31;5106891;28;20083;-72
2022/07/05 04:02:57;;;;;;;0.20;0.20;;;;;;;15.59;67.39;100293.81;5125783;28;20034;-73
2022/07/05 04:05:23;;;;;;;0.20;0.20;;;;;;;15.57;67.38;100291.25;5125498;28;20027;-71
2022/07/05 04:07:53;;;;;;;0.30;0.30;;;;;;;15.56;67.38;100292.13;5125493;28;20248;-74
2022/07/05 04:10:19;;;;;;;0.20;0.20;;;;;;;15.59;67.34;100294.66;5107238;28;20027;-74
2022/07/05 04:12:45;;;;;;;0.30;0.30;;;;;;;15.73;67.56;100296.00;5125124;28;20149;-74
2022/07/05 04:15:11;;;;;;;0.20;0.20;;;;;;;16.31;67.34;100296.78;5125385;28;20023;-75
2022/07/05 04:17:47;;;;;;;0.30;0.30;;;;;;;16.84;66.32;100290.53;5125073;28;20019;-73
2022/07/05 04:20:12;;;;;;;5.35;2.28;;;;;;;17.56;64.77;100300.13;5125204;28;20023;-72
2022/07/05 04:22:38;;;;;;;0.20;0.20;;;;;;;18.11;62.25;100297.94;5125136;28;20034;-72
2022/07/05 04:25:19;;;;;;;0.35;0.35;;;;;;;18.65;60.75;100297.44;5124993;28;20050;-76
2022/07/05 04:27:46;;;;;;;0.20;0.20;;;;;;;19.27;59.45;100294.69;5125247;28;20019;-73
2022/07/05 04:30:12;;;;;;;0.20;0.20;;;;;;;19.81;57.90;100293.88;5106729;28;20106;-76
2022/07/05 04:32:37;;;;;;;0.15;0.15;;;;;;;20.16;55.36;100300.97;5124832;28;20058;-76
2022/07/05 04:35:03;;;;;;;0.20;0.20;;;;;;;20.26;55.34;100301.38;5124887;28;20439;-76
2022/07/05 04:37:28;;;;;;;0.20;0.20;;;;;;;20.69;55.07;100305.34;5125001;28;20035;-76
2022/07/05 04:39:53;;;;;;;7.97;1.30;;;;;;;21.16;54.43;100300.25;5123986;28;20043;-76
2022/07/05 04:42:19;;;;;;;0.10;0.10;;;;;;;21.37;52.54;100307.94;5124697;28;20112;-76
2022/07/05 04:44:44;;;;;;;0.10;0.10;;;;;;;21.36;52.39;100304.44;5125078;28;20047;-76
2022/07/05 04:47:09;;;;;;;0.10;0.10;;;;;;;21.68;51.68;100306.19;5124897;28;20110;-78
2022/07/05 04:49:35;;;;;;;0.10;0.10;;;;;;;21.84;49.96;100303.56;5125043;28;20038;-78
2022/07/05 04:52:00;;;;;;;0.20;0.20;;;;;;;22.06;49.96;100302.28;5124490;28;20019;-77
2022/07/05 04:54:26;;;;;;;0.10;0.10;;;;;;;22.51;48.73;100304.94;5124883;28;20028;-77
2022/07/05 04:56:51;;;;;;;0.10;0.10;;;;;;;22.61;46.95;100302.63;5124653;28;20482;-75
2022/07/05 04:59:16;;;;;;;5.68;1.95;;;;;;;22.39;46.90;100308.31;5124639;28;20043;-76
2022/07/05 05:01:42;;;;;;;0.20;0.20;;;;;;;21.80;47.33;100302.03;5124339;28;20035;-76
2022/07/05 05:04:07;;;;;;;0.10;0.10;;;;;;;21.88;48.79;100301.59;5123838;28;20019;-77
2022/07/05 05:06:33;;;;;;;0.15;0.15;;;;;;;21.81;47.09;100303.72;5124353;28;20046;-76
2022/07/05 05:08:58;;;;;;;0.30;0.30;;;;;;;22.11;48.32;100305.53;5124406;28;20036;-76
2022/07/05 05:11:23;;;;;;;0.65;0.65;;;;;;;22.62;47.50;100303.47;5125239;28;20027;-77
2022/07/05 05:13:49;;;;;;;0.13;0.13;;;;;;;23.14;47.84;100307.31;5124875;28;20035;-76
2022/07/05 05:16:14;;;;;;;0.20;0.20;;;;;;;23.16;45.45;100312.53;5124044;28;20542;-73
2022/07/05 05:18:39;;;;;;;0.10;0.10;;;;;;;22.52;45.09;100306.63;5124332;28;20027;-68
2022/07/05 05:21:05;;;;;;;0.10;0.10;;;;;;;21.97;46.67;100318.69;5124199;28;20047;-73
2022/07/05 05:23:30;;;;;;;0.10;0.10;;;;;;;21.75;47.24;100314.63;5124102;28;20475;-74
2022/07/05 05:25:56;;;;;;;0.65;0.65;;;;;;;21.39;47.69;100311.34;5123869;28;20047;-70
2022/07/05 05:28:21;;;;;;;0.10;0.10;;;;;;;20.82;48.55;100321.38;5123976;28;20212;-70
2022/07/05 05:30:47;;;;;;;0.20;0.20;;;;;;;20.46;49.46;100311.81;5123682;28;20447;-72
2022/07/05 05:33:12;;;;;;;0.77;0.77;;;;;;;19.98;49.97;100322.94;5105523;28;20106;-71
2022/07/05 05:35:38;;;;;;;0.20;0.20;;;;;;;19.42;50.84;100318.56;5123958;28;20019;-72
2022/07/05 05:38:03;;;;;;;0.20;0.20;;;;;;;19.06;51.73;100326.28;5124140;28;20550;-72
2022/07/05 05:40:29;;;;;;;0.10;0.10;;;;;;;19.02;52.57;100319.47;5123668;28;20347;-71
2022/07/05 05:42:56;;;;;;;0.20;0.20;;;;;;;19.42;52.96;100337.00;5123488;28;20052;-71
2022/07/05 05:45:22;;;;;;;0.15;0.15;;;;;;;20.07;53.20;100333.06;5104127;28;20085;-71
2022/07/05 05:47:57;;;;;;;1.38;1.27;;;;;;;21.07;50.96;100320.06;5122893;28;20023;-71
2022/07/05 05:50:27;;;;;;;0.20;0.20;;;;;;;22.06;50.21;100331.38;5123478;28;20015;-71
2022/07/05 05:52:53;;;;;;;0.10;0.10;;;;;;;23.05;47.48;100325.56;5123718;28;20058;-72
2022/07/05 05:55:19;;;;;;;0.20;0.20;;;;;;;23.50;44.69;100322.75;5123618;28;20023;-71
2022/07/05 05:57:45;;;;;;;0.10;0.10;;;;;;;23.02;43.46;100321.31;5123726;28;20030;-70
2022/07/05 06:00:12;;;;;;;0.20;0.20;;;;;;;22.30;44.51;100341.44;5123664;28;20047;-71
2022/07/05 06:02:38;;;;;;;0.10;0.10;;;;;;;21.55;45.68;100333.31;5123341;28;20028;-72
2022/07/05 06:05:04;;;;;;;0.13;0.13;;;;;;;20.95;46.99;100336.56;5123711;28;20092;-71
2022/07/05 06:07:29;;;;;;;0.75;0.75;;;;;;;20.38;47.64;100346.50;5123588;28;20028;-71
2022/07/05 06:09:54;;;;;;;0.20;0.20;;;;;;;19.85;49.17;100349.91;5123830;28;20019;-71
2022/07/05 06:12:20;;;;;;;0.20;0.20;;;;;;;19.41;50.21;100332.69;5123631;28;20347;-71
2022/07/05 06:14:45;;;;;;;0.13;0.13;;;;;;;18.86;51.87;100336.84;5123388;28;20027;-70
2022/07/05 06:17:10;;;;;;;0.20;0.20;;;;;;;18.37;53.17;100340.72;5126805;28;20020;-71
2022/07/05 06:19:36;;;;;;;0.30;0.30;;;;;;;18.03;54.25;100337.66;5127730;28;20034;-70
2022/07/05 06:22:01;;;;;;;0.20;0.20;;;;;;;17.83;55.64;100345.44;5108919;28;20126;-70
2022/07/05 06:24:27;;;;;;;0.20;0.20;;;;;;;17.79;56.18;100351.75;5126553;28;20027;-71
2022/07/05 06:26:52;;;;;;;0.20;0.20;;;;;;;17.75;56.31;100331.75;5126355;28;20080;-70
2022/07/05 06:29:18;;;;;;;0.20;0.20;;;;;;;17.56;57.57;100345.59;5127397;28;20016;-70
2022/07/05 06:31:43;;;;;;;0.30;0.30;;;;;;;17.39;58.24;100333.16;5126998;28;20426;-72
2022/07/05 06:34:08;;;;;;;0.20;0.20;;;;;;;17.30;58.44;100344.81;5127334;28;20012;-70
2022/07/05 06:36:34;;;;;;;0.20;0.20;;;;;;;17.16;59.13;100349.72;5108789;28;20043;-71
2022/07/05 06:38:59;;;;;;;0.20;0.20;;;;;;;16.99;58.75;100335.47;5127295;28;20034;-71
2022/07/05 06:41:24;;;;;;;0.20;0.20;;;;;;;16.94;59.13;100348.75;5126909;28;20027;-71
2022/07/05 06:43:50;;;;;;;0.20;0.20;;;;;;;16.76;59.73;100350.22;5127014;28;20016;-70
2022/07/05 06:46:15;;;;;;;0.25;0.25;;;;;;;16.65;60.88;100355.84;5127012;28;20034;-71
2022/07/05 06:48:40;;;;;;;0.28;0.28;;;;;;;16.50;61.10;100353.78;5126954;28;20084;-71
2022/07/05 06:51:06;;;;;;;0.20;0.20;;;;;;;16.31;61.52;100362.25;5108574;28;20022;-71
2022/07/05 06:53:31;;;;;;;0.20;0.20;;;;;;;16.20;62.12;100358.22;5126848;28;20019;-71
2022/07/05 06:55:57;;;;;;;0.20;0.20;;;;;;;16.13;62.67;100354.09;5126916;28;20118;-70
2022/07/05 06:58:23;;;;;;;0.30;0.30;;;;;;;16.07;63.31;100365.63;5108428;28;20510;-71
2022/07/05 07:00:49;;;;;;;0.20;0.20;;;;;;;15.98;64.19;100368.53;5126501;28;20081;-71
2022/07/05 07:03:14;;;;;;;0.20;0.20;;;;;;;15.95;63.89;100363.34;5126683;28;20023;-72
2022/07/05 07:05:40;;;;;;;0.20;0.20;;;;;;;16.00;64.59;100368.47;5126529;28;20023;-72
2022/07/05 07:10:49;;;;;;;0.20;0.20;;;;;;;16.04;64.38;100370.94;5126782;28;20034;-71
2022/07/05 07:13:14;;;;;;;0.40;0.40;;;;;;;16.09;64.00;100374.28;5126404;28;20023;-71
2022/07/05 07:15:40;;;;;;;0.20;0.20;;;;;;;16.06;64.39;100369.16;5126387;28;20047;-71
2022/07/05 07:18:06;;;;;;;9.32;3.70;;;;;;;16.02;64.78;100370.16;5126017;28;20411;-71
2022/07/05 07:20:31;;;;;;;0.20;0.20;;;;;;;16.03;64.65;100376.22;5107979;28;20043;-70
2022/07/05 07:22:57;;;;;;;0.20;0.20;;;;;;;16.09;64.81;100368.19;5126019;28;20449;-71
2022/07/05 07:25:23;;;;;;;0.25;0.25;;;;;;;16.17;64.39;100365.31;5125982;28;20070;-70
2022/07/05 07:27:53;;;;;;;0.20;0.20;;;;;;;16.20;64.28;100365.22;5124559;28;20031;-71
2022/07/05 07:30:22;;;;;;;0.20;0.20;;;;;;;16.19;64.36;100363.50;5125460;28;20019;-72
2022/07/05 07:32:47;;;;;;;0.20;0.20;;;;;;;16.04;64.90;100367.50;5125954;28;20031;-70
2022/07/05 07:35:13;;;;;;;0.20;0.20;;;;;;;15.97;65.59;100377.28;5126419;28;20024;-70
2022/07/05 07:37:39;;;;;;;0.20;0.20;;;;;;;15.83;66.29;100375.91;5126116;28;20028;-70
2022/07/05 07:40:06;;;;;;;0.40;0.40;;;;;;;15.80;67.28;100376.03;5125684;28;20081;-71
2022/07/05 07:42:31;;;;;;;0.20;0.20;;;;;;;16.18;68.29;100374.91;5125787;28;20463;-70
2022/07/05 07:44:57;;;;;;;0.20;0.20;;;;;;;16.75;67.05;100369.50;5125852;28;20042;-70
2022/07/05 07:47:22;;;;;;;0.20;0.20;;;;;;;17.27;65.83;100370.34;5125709;28;20023;-70
2022/07/05 07:49:48;;;;;;;0.20;0.20;;;;;;;17.78;63.67;100365.75;5125925;28;20015;-71
2022/07/05 07:52:14;;;;;;;0.20;0.20;;;;;;;18.17;62.82;100372.16;5125733;28;20012;-70
2022/07/05 07:54:39;;;;;;;0.30;0.30;;;;;;;18.25;61.10;100369.19;5125745;28;20023;-71
2022/07/05 07:57:05;;;;;;;0.30;0.30;;;;;;;18.26;61.18;100364.81;5125846;28;20027;-71
2022/07/05 07:59:34;;;;;;;0.20;0.20;;;;;;;18.40;60.40;100372.94;5107083;28;20126;-70
2022/07/05 08:02:00;;;;;;;0.20;0.20;;;;;;;19.06;59.84;100364.88;5125207;28;20023;-71
2022/07/05 08:04:25;;;;;;;0.20;0.20;;;;;;;19.43;57.68;100363.25;5125551;28;20027;-69
2022/07/05 08:06:50;;;;;;;0.20;0.20;;;;;;;19.40;56.83;100366.03;5125566;28;20088;-71
2022/07/05 08:09:16;;;;;;;0.40;0.40;;;;;;;19.15;56.11;100363.66;5125450;28;20468;-72
2022/07/05 08:11:41;;;;;;;0.20;0.20;;;;;;;19.06;57.63;100360.50;5125651;28;20136;-70
2022/07/05 08:14:07;;;;;;;0.20;0.20;;;;;;;19.41;56.89;100359.84;5124562;28;20107;-70
2022/07/05 08:16:32;;;;;;;0.20;0.20;;;;;;;19.53;56.28;100370.72;5124797;28;20027;-70
2022/07/05 08:21:43;;;;;;;0.17;0.17;;;;;;;19.74;54.67;100365.38;5125297;28;20050;-72
2022/07/05 08:24:11;;;;;;;0.20;0.20;;;;;;;19.56;55.17;100374.06;5124925;28;20032;-71
2022/07/05 08:26:38;;;;;;;0.20;0.20;;;;;;;19.20;54.25;100366.97;5124973;28;20059;-71
2022/07/05 08:29:05;;;;;;;0.20;0.20;;;;;;;19.13;54.96;100361.09;5125350;28;20019;-71
2022/07/05 08:31:34;;;;;;;0.20;0.20;;;;;;;19.11;55.24;100360.31;5125097;28;20015;-71
2022/07/05 08:33:59;;;;;;;0.20;0.20;;;;;;;19.07;55.59;100372.72;5124833;28;20034;-71
2022/07/05 08:36:25;;;;;;;0.20;0.20;;;;;;;18.83;55.23;100375.50;5125015;28;20027;-71
2022/07/05 08:38:50;;;;;;;0.20;0.20;;;;;;;18.41;55.07;100376.44;5124283;28;20032;-71
2022/07/05 08:41:19;;;;;;;0.20;0.20;;;;;;;18.96;56.04;100372.38;5124692;28;20031;-71
2022/07/05 08:43:48;;;;;;;0.20;0.20;;;;;;;19.47;53.64;100379.78;5106299;28;20114;-71
2022/07/05 08:46:15;;;;;;;0.20;0.20;;;;;;;19.74;53.90;100384.66;5124464;28;20070;-71
2022/07/05 08:48:43;;;;;;;0.20;0.20;;;;;;;20.35;52.44;100388.84;5124692;28;20107;-70
2022/07/05 08:51:23;;;;;;;0.20;0.20;;;;;;;20.28;51.46;100402.31;5124682;28;20043;-70
2022/07/05 08:53:50;;;;;;;0.20;0.20;;;;;;;19.49;52.13;100409.50;5106311;28;20047;-72
2022/07/05 08:56:17;;;;;;;0.20;0.20;;;;;;;18.61;53.44;100416.81;5124786;28;20027;-71
2022/07/05 08:58:44;;;;;;;0.35;0.35;;;;;;;17.84;55.34;100422.44;5124680;28;20292;-69
2022/07/05 09:01:11;;;;;;;0.20;0.20;;;;;;;17.08;57.63;100421.69;5106015;28;20053;-68
2022/07/05 09:03:51;;;;;;;0.20;0.20;;;;;;;16.64;59.69;100431.91;5124537;28;20073;-69
2022/07/05 09:06:19;;;;;;;0.20;0.20;;;;;;;16.64;61.40;100424.06;5124334;28;20028;-69
2022/07/05 09:08:45;;;;;;;0.20;0.20;;;;;;;17.29;61.95;100421.84;5124103;28;20048;-70
2022/07/05 09:11:15;;;;;;;0.20;0.20;;;;;;;17.94;61.70;100418.53;5124266;28;20075;-71
2022/07/05 09:13:44;;;;;;;0.20;0.20;;;;;;;18.64;60.22;100419.31;5124093;28;20020;-71
2022/07/05 09:16:09;;;;;;;0.60;0.60;;;;;;;19.00;59.15;100412.53;5123962;28;20023;-71
2022/07/05 09:18:46;;;;;;;0.20;0.20;;;;;;;19.59;59.01;100412.56;5124230;28;20110;-70
2022/07/05 09:21:12;;;;;;;0.20;0.20;;;;;;;20.64;58.00;100412.88;5124048;28;20029;-70
2022/07/05 09:23:38;;;;;;;0.20;0.20;;;;;;;21.94;56.06;100406.94;5123872;28;20097;-71
2022/07/05 09:26:03;;;;;;;0.20;0.20;;;;;;;22.90;54.29;100399.69;5123768;28;20040;-71
2022/07/05 09:28:28;;;;;;;0.35;0.35;;;;;;;23.84;51.82;100407.19;5123981;28;20545;-71
2022/07/05 09:30:54;;;;;;;0.10;0.10;;;;;;;23.79;48.56;100410.13;5123840;28;20031;-71
2022/07/05 09:33:19;;;;;;;0.20;0.20;;;;;;;23.67;48.15;100405.63;5123758;28;20045;-71
2022/07/05 09:35:59;;;;;;;0.20;0.20;;;;;;;23.79;46.94;100402.19;5123810;28;20030;-71
2022/07/05 09:38:25;;;;;;;0.10;0.10;;;;;;;24.24;46.08;100396.66;5123782;28;20039;-70
2022/07/05 09:40:53;;;;;;;1.98;1.55;;;;;;;24.12;45.95;100410.69;5123665;28;20027;-71
2022/07/05 09:43:24;;;;;;;0.10;0.10;;;;;;;23.75;46.83;100420.06;5123625;28;20023;-71
2022/07/05 09:46:00;;;;;;;0.20;0.20;;;;;;;23.40;46.71;100416.06;5123981;28;20024;-71
2022/07/05 09:48:27;;;;;;;0.20;0.20;;;;;;;22.74;45.48;100419.16;5123769;28;20058;-71
2022/07/05 09:51:07;;;;;;;0.13;0.13;;;;;;;22.32;46.62;100416.25;5123457;28;20116;-70
2022/07/05 09:53:46;;;;;;;0.10;0.10;;;;;;;21.92;46.85;100419.38;5123767;28;20102;-71
2022/07/05 09:56:13;;;;;;;0.20;0.20;;;;;;;21.61;47.79;100424.56;5123835;28;20027;-69
2022/07/05 09:58:40;;;;;;;0.10;0.10;;;;;;;21.33;47.76;100422.56;5123685;28;20073;-69
2022/07/05 10:01:31;;;;;;;0.30;0.30;;;;;;;20.84;48.33;100434.72;5105076;28;20027;-71
2022/07/05 10:04:01;;;;;;;0.20;0.20;;;;;;;20.29;49.25;100443.56;5123508;28;20073;-70
2022/07/05 10:06:28;;;;;;;0.20;0.20;;;;;;;19.78;50.69;100451.19;5123585;28;20388;-69
2022/07/05 10:08:53;;;;;;;0.20;0.20;;;;;;;19.12;52.54;100446.22;5123690;28;20079;-70
2022/07/05 10:11:20;;;;;;;0.65;0.65;;;;;;;18.24;55.78;100455.97;5123481;28;20027;-70
2022/07/05 10:13:50;;;;;;;0.20;0.20;;;;;;;17.88;57.91;100455.53;5123466;28;20027;-70
2022/07/05 10:16:17;;;;;;;0.20;0.20;;;;;;;17.94;58.84;100449.19;5123308;28;20041;-68
2022/07/05 10:18:55;;;;;;;0.20;0.20;;;;;;;18.18;59.52;100443.91;5123517;28;20030;-67
2022/07/05 10:21:22;;;;;;;0.20;0.20;;;;;;;18.68;59.32;100447.19;5123281;28;20023;-67
2022/07/05 10:23:55;;;;;;;0.77;0.77;;;;;;;19.19;57.98;100439.78;5123358;28;20047;-68
2022/07/05 10:26:23;;;;;;;0.20;0.20;;;;;;;19.22;57.22;100443.19;5104702;28;20185;-69
2022/07/05 10:28:52;;;;;;;1.05;1.05;;;;;;;18.86;56.82;100448.19;5104820;28;20531;-69
2022/07/05 10:31:18;;;;;;;0.20;0.20;;;;;;;18.15;58.14;100467.69;5123306;28;20028;-70
2022/07/05 10:33:44;;;;;;;0.20;0.20;;;;;;;17.46;59.82;100483.31;5123163;28;20020;-69
2022/07/05 10:36:11;;;;;;;0.20;0.20;;;;;;;16.84;61.53;100478.44;5123331;28;20027;-69
2022/07/05 10:38:40;;;;;;;0.20;0.20;;;;;;;16.51;62.53;100476.88;5123440;28;20035;-69
2022/07/05 10:41:09;;;;;;;0.20;0.20;;;;;;;16.51;63.55;100487.38;5123173;28;20031;-68
2022/07/05 10:43:34;;;;;;;0.20;0.20;;;;;;;16.71;63.78;100480.59;5123152;28;20043;-69
2022/07/05 10:46:02;;;;;;;0.20;0.20;;;;;;;17.10;63.59;100487.22;5123021;28;20020;-70
2022/07/05 10:48:28;;;;;;;0.20;0.20;;;;;;;17.39;63.22;100476.59;5123318;28;20031;-69
2022/07/05 10:51:14;;;;;;;0.30;0.30;;;;;;;17.84;63.25;100480.22;5123250;28;20019;-71
2022/07/05 10:53:39;;;;;;;0.20;0.20;;;;;;;18.22;62.11;100477.06;5123269;28;20031;-70
2022/07/05 10:56:04;;;;;;;0.20;0.20;;;;;;;18.47;61.40;100472.59;5123244;28;20058;-69
2022/07/05 10:58:40;;;;;;;0.20;0.20;;;;;;;18.58;60.33;100476.47;5123075;28;20023;-71
2022/07/05 11:01:11;;;;;;;0.20;0.20;;;;;;;18.45;60.60;100475.28;5122840;28;20028;-71
2022/07/05 11:03:37;;;;;;;0.30;0.30;;;;;;;18.39;60.71;100467.63;5126897;28;20023;-69
2022/07/05 11:06:03;;;;;;;0.20;0.20;;;;;;;18.32;61.00;100465.25;5126918;28;20538;-70
2022/07/05 11:08:33;;;;;;;0.20;0.20;;;;;;;18.58;61.23;100465.09;5126923;28;20020;-70
2022/07/05 11:11:12;;;;;;;0.20;0.20;;;;;;;19.15;61.40;100474.19;5126780;28;20012;-71
2022/07/05 11:13:40;;;;;;;0.20;0.20;;;;;;;19.53;58.30;100462.88;5108071;28;20019;-70
2022/07/05 11:16:24;;;;;;;1.35;1.23;;;;;;;19.71;57.83;100468.22;5126301;28;20375;-71
2022/07/05 11:18:52;;;;;;;0.20;0.20;;;;;;;19.88;56.75;100475.34;5126580;28;20023;-71
2022/07/05 11:21:20;;;;;;;0.20;0.20;;;;;;;19.86;56.57;100459.59;5126442;28;20055;-71
2022/07/05 11:23:46;;;;;;;0.20;0.20;;;;;;;19.57;56.25;100464.44;5126375;28;20027;-71
2022/07/05 11:26:13;;;;;;;4.03;0.85;;;;;;;19.19;56.28;100475.75;5107348;28;20328;-72
2022/07/05 11:28:46;;;;;;;0.20;0.20;;;;;;;18.87;57.55;100480.56;5125345;28;20020;-70